East Arlington, Vermont
Current Conditions -  °F | °C
As of 10:36 PM on Saturday 24 Jan 2015 (Local Time) from KDDH Reporting Station
Overcast Overcast  
Wind Chill: 19°   Ceiling: 2600
Heat Index: 28°   Visibility: 9mi
Dew Point: 23°   Wind: 10mph
Humidity: 81%   Direction: 250°WSW
Pressure: 29.35"   Gusts: 17mph
Location:  43.06°N, 73.14°W
Report Text: KDDH 250336Z AUTO 25009G15KT 9SM BKN026 OVC039 M02/M05 A2935 RMK AO2 T10221050
Loading
Personal Weather Stations






























Interactive Weather Map New forecast layout! Learn more

10-Day Weather Forecast

Advertisements
Track Severe Weather on mobile